createdAt,value
2024-05-09T00:02:29.157Z,14.25
2024-05-09T00:04:58.753Z,16.55
2024-05-09T00:07:28.326Z,15.50
2024-05-09T00:09:57.788Z,13.98
2024-05-09T00:12:27.308Z,16.20
2024-05-09T00:14:56.793Z,15.10
2024-05-09T00:17:29.110Z,17.10
2024-05-09T00:19:58.875Z,11.88
2024-05-09T00:22:28.514Z,15.77
2024-05-09T00:24:57.991Z,16.52
2024-05-09T00:27:27.556Z,15.63
2024-05-09T00:29:57.093Z,12.27
2024-05-09T00:32:29.430Z,12.82
2024-05-09T00:34:59.070Z,14.32
2024-05-09T00:37:28.566Z,13.32
2024-05-09T00:39:58.036Z,14.35
2024-05-09T00:42:27.507Z,14.15
2024-05-09T00:44:56.946Z,13.98
2024-05-09T00:47:29.730Z,13.68
2024-05-09T00:49:59.805Z,13.00
2024-05-09T00:52:30.120Z,11.93
2024-05-09T00:55:00.832Z,11.68
2024-05-09T00:57:30.648Z,13.85
2024-05-09T01:00:00.598Z,13.93
2024-05-09T01:02:34.011Z,14.25
2024-05-09T01:05:03.897Z,16.95
2024-05-09T01:07:33.784Z,14.77
2024-05-09T01:10:05.589Z,14.70
2024-05-09T01:12:36.796Z,13.07
2024-05-09T01:15:06.942Z,14.95
2024-05-09T01:17:39.375Z,14.10
2024-05-09T01:20:10.984Z,14.38
2024-05-09T01:22:47.228Z,14.88
2024-05-09T01:25:19.554Z,15.98
2024-05-09T01:27:49.054Z,14.27
2024-05-09T01:30:24.321Z,16.38
2024-05-09T01:32:57.537Z,19.35
2024-05-09T01:35:27.674Z,14.70
2024-05-09T01:37:57.331Z,16.92
2024-05-09T01:40:37.137Z,14.90
2024-05-09T01:43:10.725Z,14.55
2024-05-09T01:45:41.501Z,17.88
2024-05-09T01:48:11.846Z,15.52
2024-05-09T01:50:43.154Z,18.98
2024-05-09T01:53:15.033Z,16.08
2024-05-09T01:55:47.795Z,20.08
2024-05-09T01:58:17.590Z,19.33
2024-05-09T02:00:48.187Z,16.70
2024-05-09T02:03:18.235Z,16.15
2024-05-09T02:05:50.116Z,16.02
2024-05-09T02:08:21.099Z,17.27
2024-05-09T02:10:53.744Z,17.48
2024-05-09T02:13:23.336Z,16.80
2024-05-09T02:15:52.968Z,16.38
2024-05-09T02:18:22.847Z,15.50
2024-05-09T02:20:52.573Z,15.18
2024-05-09T02:23:22.285Z,16.92
2024-05-09T02:25:54.545Z,16.73
2024-05-09T02:28:24.209Z,19.48
2024-05-09T02:30:53.763Z,17.98
2024-05-09T02:33:23.758Z,15.45
2024-05-09T02:35:53.399Z,16.63
2024-05-09T02:38:24.110Z,18.05
2024-05-09T02:40:56.384Z,17.70
2024-05-09T02:43:26.084Z,14.60
2024-05-09T02:45:55.560Z,18.73
2024-05-09T02:48:25.267Z,16.77
2024-05-09T02:50:54.923Z,19.30
2024-05-09T02:53:24.680Z,20.88
2024-05-09T02:55:56.897Z,19.10
2024-05-09T02:58:26.585Z,17.40
2024-05-09T03:00:56.244Z,16.50
2024-05-09T03:03:26.264Z,18.38
2024-05-09T03:05:55.971Z,15.40
2024-05-09T03:08:27.595Z,18.73
2024-05-09T03:10:59.813Z,18.48
2024-05-09T03:13:29.343Z,17.17
2024-05-09T03:15:59.881Z,17.48
2024-05-09T03:18:29.626Z,17.67
2024-05-09T03:20:59.558Z,15.27
2024-05-09T03:23:29.092Z,14.98
2024-05-09T03:26:01.384Z,20.88
2024-05-09T03:28:30.960Z,15.20
2024-05-09T03:31:00.486Z,18.10
2024-05-09T03:33:30.254Z,15.05
2024-05-09T03:36:01.168Z,17.63
2024-05-09T03:38:31.263Z,17.38
2024-05-09T03:41:03.840Z,15.32
2024-05-09T03:43:33.484Z,15.00
2024-05-09T03:46:02.977Z,17.00
2024-05-09T03:48:34.934Z,16.05
2024-05-09T03:51:05.064Z,13.85
2024-05-09T03:53:34.941Z,16.40
2024-05-09T03:56:10.184Z,16.80
2024-05-09T03:58:39.779Z,16.48
2024-05-09T04:01:09.394Z,16.40
2024-05-09T04:03:39.700Z,15.90
2024-05-09T04:06:09.289Z,15.65
2024-05-09T04:08:38.967Z,15.25
2024-05-09T04:11:11.248Z,14.77
2024-05-09T04:13:40.799Z,14.77
2024-05-09T04:16:11.379Z,14.20
2024-05-09T04:18:41.029Z,16.02
2024-05-09T04:21:10.781Z,19.27
2024-05-09T04:23:40.825Z,16.55
2024-05-09T04:26:14.070Z,16.63
2024-05-09T04:28:43.689Z,16.23
2024-05-09T04:31:13.215Z,16.80
2024-05-09T04:33:42.803Z,18.52
2024-05-09T04:36:12.449Z,16.52
2024-05-09T04:38:41.981Z,19.13
2024-05-09T04:41:14.236Z,16.83
2024-05-09T04:43:43.932Z,16.00
2024-05-09T04:46:14.867Z,13.57
2024-05-09T04:48:45.174Z,15.10
2024-05-09T04:51:14.778Z,16.67
2024-05-09T04:53:44.507Z,18.67
2024-05-09T04:56:16.892Z,17.08
2024-05-09T04:58:46.661Z,17.63
2024-05-09T05:01:16.435Z,17.75
2024-05-09T05:03:46.327Z,19.50
2024-05-09T05:06:16.027Z,14.52
2024-05-09T05:08:45.696Z,16.15
2024-05-09T05:11:18.002Z,14.05
2024-05-09T05:13:47.688Z,17.65
2024-05-09T05:16:17.176Z,18.02
2024-05-09T05:18:46.848Z,17.42
2024-05-09T05:21:16.522Z,17.77
2024-05-09T05:23:46.239Z,16.70
2024-05-09T05:26:20.556Z,19.95
2024-05-09T05:28:51.059Z,18.35
2024-05-09T05:31:20.698Z,19.38
2024-05-09T05:33:50.313Z,17.10
2024-05-09T05:36:19.953Z,17.10
2024-05-09T05:38:49.729Z,19.25
2024-05-09T05:41:22.227Z,20.92
2024-05-09T05:43:52.005Z,20.30
2024-05-09T05:46:21.588Z,20.95
2024-05-09T05:48:51.168Z,19.13
2024-05-09T05:51:20.764Z,20.65
2024-05-09T05:53:50.503Z,19.65
2024-05-09T05:56:22.959Z,22.30
2024-05-09T05:58:52.535Z,22.25
2024-05-09T06:01:22.121Z,21.65
2024-05-09T06:03:51.833Z,22.73
2024-05-09T06:06:21.467Z,23.60
2024-05-09T06:08:51.296Z,20.23
2024-05-09T06:11:23.640Z,25.17
2024-05-09T06:13:53.400Z,21.98
2024-05-09T06:16:22.942Z,23.92
2024-05-09T06:18:52.625Z,23.92
2024-05-09T06:21:22.436Z,23.80
2024-05-09T06:23:53.437Z,24.35
2024-05-09T06:26:25.734Z,19.73
2024-05-09T06:28:55.418Z,19.60
2024-05-09T06:31:25.048Z,20.42
2024-05-09T06:33:54.671Z,19.90
2024-05-09T06:36:24.637Z,20.60
2024-05-09T06:38:54.226Z,19.13
2024-05-09T06:41:26.583Z,19.30
2024-05-09T06:43:56.216Z,18.55
2024-05-09T06:46:26.682Z,18.08
2024-05-09T06:48:56.493Z,17.70
2024-05-09T06:51:26.316Z,18.75
2024-05-09T06:53:56.649Z,17.55
2024-05-09T06:56:29.117Z,16.42
2024-05-09T06:58:58.761Z,15.43
2024-05-09T07:01:28.314Z,16.42
2024-05-09T07:03:57.950Z,15.73
2024-05-09T07:06:27.503Z,16.02
2024-05-09T07:08:57.017Z,15.73
2024-05-09T07:11:31.466Z,14.77
2024-05-09T07:14:01.196Z,14.43
2024-05-09T07:16:30.699Z,12.98
2024-05-09T07:19:00.515Z,15.18
2024-05-09T07:21:32.283Z,13.00
2024-05-09T07:24:01.832Z,13.40
2024-05-09T07:26:34.091Z,11.48
2024-05-09T07:29:03.758Z,13.18
2024-05-09T07:31:33.328Z,12.70
2024-05-09T07:34:03.099Z,13.60
2024-05-09T07:36:32.773Z,11.88
2024-05-09T07:39:02.415Z,12.15
2024-05-09T07:41:34.788Z,13.25
2024-05-09T07:44:04.707Z,11.73
2024-05-09T07:53:14.367Z,13.68
2024-05-09T07:54:29.351Z,11.55
2024-05-09T07:57:02.008Z,9.10
2024-05-09T07:59:35.061Z,11.40
2024-05-09T08:02:06.835Z,13.70
2024-05-09T08:04:43.828Z,9.25
2024-05-09T08:07:13.588Z,10.20
2024-05-09T08:09:43.413Z,10.20
2024-05-09T08:12:16.282Z,9.93
2024-05-09T08:14:45.933Z,9.85
2024-05-09T08:17:15.626Z,8.23
2024-05-09T08:19:45.337Z,8.77
2024-05-09T08:22:15.023Z,10.50
2024-05-09T08:24:45.772Z,11.45
2024-05-09T08:27:18.124Z,7.80
2024-05-09T08:29:47.645Z,7.88
2024-05-09T08:32:17.346Z,8.98
2024-05-09T08:34:47.258Z,9.65
2024-05-09T08:37:22.361Z,9.57
2024-05-09T08:39:54.251Z,8.13
2024-05-09T08:42:29.218Z,8.25
2024-05-09T08:44:58.777Z,8.05
2024-05-09T08:47:31.564Z,7.15
2024-05-09T08:50:03.166Z,7.22
2024-05-09T08:52:34.307Z,7.03
2024-05-09T08:55:04.279Z,9.20
2024-05-09T08:57:37.549Z,10.60
2024-05-09T09:00:12.693Z,7.20
2024-05-09T09:02:45.955Z,7.25
2024-05-09T09:05:17.459Z,7.93
2024-05-09T09:07:51.701Z,8.57
2024-05-09T09:10:29.731Z,7.97
2024-05-09T09:13:07.171Z,6.43
2024-05-09T09:15:46.884Z,5.82
2024-05-09T09:18:17.490Z,9.25
2024-05-09T09:20:48.082Z,6.32
2024-05-09T09:23:17.709Z,6.57
2024-05-09T09:25:47.607Z,7.75
2024-05-09T09:28:23.170Z,5.88
2024-05-09T09:30:52.979Z,5.80
2024-05-09T09:33:22.763Z,6.43
2024-05-09T09:35:52.491Z,7.60
2024-05-09T09:38:23.388Z,8.32
2024-05-09T09:40:53.266Z,5.07
2024-05-09T09:43:26.860Z,5.53
2024-05-09T09:46:00.120Z,5.75
2024-05-09T09:48:31.470Z,6.10
2024-05-09T09:51:01.603Z,5.28
2024-05-09T09:53:33.511Z,6.93
2024-05-09T09:56:04.686Z,10.20
2024-05-09T09:58:39.451Z,4.55
2024-05-09T10:03:38.899Z,5.18
2024-05-09T10:06:09.633Z,4.75
2024-05-09T10:08:40.009Z,4.57
2024-05-09T10:11:10.106Z,5.97
2024-05-09T10:13:42.406Z,5.80
2024-05-09T10:16:12.483Z,5.97
2024-05-09T10:18:42.311Z,4.05
2024-05-09T10:21:18.667Z,3.97
2024-05-09T10:23:59.550Z,5.40
2024-05-09T10:26:33.895Z,7.38
2024-05-09T10:29:14.444Z,6.03
2024-05-09T10:31:45.077Z,3.50
2024-05-09T10:34:19.189Z,4.45
2024-05-09T10:36:52.349Z,3.53
2024-05-09T10:39:22.252Z,4.85
2024-05-09T10:41:51.793Z,4.13
2024-05-09T10:44:23.949Z,5.05
2024-05-09T10:46:54.897Z,4.65
2024-05-09T10:49:24.887Z,4.95
2024-05-09T10:51:54.550Z,3.40
2024-05-09T10:54:24.090Z,5.07
2024-05-09T10:56:57.698Z,3.67
2024-05-09T10:59:35.997Z,7.65
2024-05-09T11:02:08.021Z,4.07
2024-05-09T11:04:40.429Z,4.55
2024-05-09T11:07:12.333Z,3.80
2024-05-09T11:09:42.958Z,4.05
2024-05-09T11:12:12.715Z,5.45
2024-05-09T11:14:54.882Z,6.45
2024-05-09T11:17:24.586Z,3.47
2024-05-09T11:19:54.282Z,4.95
2024-05-09T11:22:25.237Z,4.47
2024-05-09T11:24:55.353Z,6.28
2024-05-09T11:27:25.046Z,5.00
2024-05-09T11:29:58.692Z,3.05
2024-05-09T11:32:29.758Z,3.45
2024-05-09T11:34:59.483Z,5.47
2024-05-09T11:37:31.834Z,8.13
2024-05-09T11:40:03.405Z,4.43
2024-05-09T11:42:33.963Z,5.07
2024-05-09T11:45:06.754Z,10.60
2024-05-09T11:47:36.380Z,5.97
2024-05-09T11:50:08.220Z,5.00
2024-05-09T11:52:40.954Z,5.43
2024-05-09T11:55:11.078Z,6.28
2024-05-09T11:57:40.839Z,3.15
2024-05-09T12:00:18.247Z,4.97
2024-05-09T12:02:56.244Z,3.85
2024-05-09T12:05:26.104Z,3.80
2024-05-09T12:07:56.489Z,5.20
2024-05-09T12:10:32.485Z,2.95
2024-05-09T12:13:06.689Z,4.47
2024-05-09T12:15:39.857Z,4.00
2024-05-09T12:18:09.510Z,3.45
2024-05-09T12:20:40.199Z,6.40
2024-05-09T12:23:10.701Z,3.92
2024-05-09T12:25:40.700Z,3.95
2024-05-09T12:28:10.380Z,3.60
2024-05-09T12:30:42.937Z,4.20
2024-05-09T12:33:13.788Z,3.50
2024-05-09T12:35:46.427Z,5.63
2024-05-09T12:38:18.224Z,3.75
2024-05-09T12:40:47.855Z,3.47
2024-05-09T12:43:17.754Z,3.67
2024-05-09T12:45:49.973Z,7.50
2024-05-09T12:48:19.786Z,3.80
2024-05-09T12:50:49.673Z,4.88
2024-05-09T12:53:19.224Z,4.22
2024-05-09T12:55:56.419Z,3.63
2024-05-09T12:58:29.442Z,4.70
2024-05-09T13:01:01.647Z,4.15
2024-05-09T13:03:31.596Z,4.57
2024-05-09T13:06:01.489Z,3.55
2024-05-09T13:08:30.975Z,4.15
2024-05-09T13:11:00.593Z,3.88
2024-05-09T13:13:30.232Z,4.65
2024-05-09T13:16:02.577Z,4.88
2024-05-09T13:18:33.596Z,8.27
2024-05-09T13:21:03.255Z,4.60
2024-05-09T13:23:32.740Z,11.25
2024-05-09T13:26:02.220Z,3.42
2024-05-09T13:28:33.583Z,5.18
2024-05-09T13:31:05.947Z,4.40
2024-05-09T13:33:35.766Z,3.17
2024-05-09T13:36:06.470Z,4.43
2024-05-09T13:38:35.976Z,3.88
2024-05-09T13:41:05.539Z,5.03
2024-05-09T13:43:35.189Z,3.63
2024-05-09T13:46:07.662Z,3.40
2024-05-09T13:48:37.368Z,8.07
2024-05-09T13:51:07.138Z,4.63
2024-05-09T13:53:36.810Z,5.38
2024-05-09T13:56:08.666Z,3.90
2024-05-09T13:58:38.436Z,3.40
2024-05-09T14:01:10.666Z,3.35
2024-05-09T14:03:40.426Z,4.95
2024-05-09T14:06:13.032Z,4.85
2024-05-09T14:08:42.835Z,4.35
2024-05-09T14:11:12.523Z,4.10
2024-05-09T14:13:42.132Z,3.95
2024-05-09T14:16:14.720Z,4.07
2024-05-09T14:18:44.453Z,3.85
2024-05-09T14:21:14.267Z,5.72
2024-05-09T14:23:43.775Z,3.72
2024-05-09T14:26:14.135Z,5.15
2024-05-09T14:28:44.275Z,2.70
2024-05-09T14:31:16.461Z,3.40
2024-05-09T14:33:46.227Z,3.53
2024-05-09T14:36:15.773Z,4.93
2024-05-09T14:38:45.302Z,5.07
2024-05-09T14:41:14.823Z,3.22
2024-05-09T14:43:44.336Z,5.18
2024-05-09T14:46:16.940Z,5.18
2024-05-09T14:48:46.611Z,3.65
2024-05-09T14:51:16.633Z,3.72
2024-05-09T14:53:46.359Z,4.75
2024-05-09T14:56:15.975Z,3.30
2024-05-09T14:58:45.663Z,5.70
2024-05-09T15:01:20.421Z,4.32
2024-05-09T15:03:50.197Z,3.40
2024-05-09T15:06:20.004Z,5.03
2024-05-09T15:08:54.735Z,6.55
2024-05-09T15:11:24.658Z,5.40
2024-05-09T15:13:54.188Z,5.75
2024-05-09T15:16:26.738Z,4.20
2024-05-09T15:18:56.620Z,6.60
2024-05-09T15:21:26.209Z,6.18
2024-05-09T15:23:55.635Z,6.35
2024-05-09T15:26:25.401Z,3.65
2024-05-09T15:28:54.924Z,3.75
2024-05-09T15:31:27.179Z,3.17
2024-05-09T15:33:56.771Z,7.18
2024-05-09T15:36:26.680Z,5.10
2024-05-09T15:38:56.214Z,5.60
2024-05-09T15:41:26.035Z,4.25
2024-05-09T15:43:55.573Z,4.60
2024-05-09T15:46:28.006Z,4.22
2024-05-09T15:48:57.749Z,4.10
2024-05-09T15:51:27.403Z,3.75
2024-05-09T15:53:56.881Z,4.57
2024-05-09T15:56:27.101Z,3.95
2024-05-09T15:58:57.906Z,4.40
2024-05-09T16:01:30.350Z,4.47
2024-05-09T16:04:00.077Z,5.32
2024-05-09T16:06:30.083Z,4.43
2024-05-09T16:08:59.969Z,5.65
2024-05-09T16:11:29.505Z,4.00
2024-05-09T16:13:59.122Z,4.93
2024-05-09T16:16:31.704Z,5.15
2024-05-09T16:19:01.870Z,3.72
2024-05-09T16:21:31.626Z,3.40
2024-05-09T16:24:01.355Z,3.08
2024-05-09T16:26:30.894Z,5.20
2024-05-09T16:29:00.482Z,3.38
2024-05-09T16:31:32.757Z,6.93
2024-05-09T16:34:02.567Z,5.82
2024-05-09T16:36:32.731Z,4.32
2024-05-09T16:39:02.331Z,4.85
2024-05-09T16:41:31.947Z,4.55
2024-05-09T16:44:01.792Z,4.90
2024-05-09T16:46:34.109Z,4.47
2024-05-09T16:49:04.065Z,2.83
2024-05-09T16:51:33.783Z,4.50
2024-05-09T16:54:03.442Z,3.63
2024-05-09T16:56:32.932Z,3.90
2024-05-09T16:59:02.421Z,4.25
2024-05-09T17:01:34.780Z,5.38
2024-05-09T17:04:04.769Z,4.28
2024-05-09T17:06:34.616Z,5.82
2024-05-09T17:09:08.603Z,4.03
2024-05-09T17:11:41.471Z,4.47
2024-05-09T17:14:11.078Z,4.40
2024-05-09T17:16:43.291Z,4.43
2024-05-09T17:19:12.967Z,3.45
2024-05-09T17:21:42.462Z,3.90
2024-05-09T17:24:12.028Z,4.80
2024-05-09T17:26:41.604Z,5.03
2024-05-09T17:29:12.596Z,3.83
2024-05-09T17:31:44.922Z,3.95
2024-05-09T17:34:14.811Z,5.43
2024-05-09T17:36:44.557Z,5.55
2024-05-09T17:39:14.215Z,3.97
2024-05-09T17:41:43.841Z,4.15
2024-05-09T17:44:13.325Z,3.78
2024-05-09T17:46:45.822Z,3.25
2024-05-09T17:49:15.484Z,5.32
2024-05-09T17:51:51.225Z,4.05
2024-05-09T17:54:21.118Z,4.30
2024-05-09T17:56:51.205Z,3.42
2024-05-09T17:59:20.654Z,5.70
2024-05-09T18:01:52.963Z,4.82
2024-05-09T18:04:22.620Z,3.42
2024-05-09T18:06:52.392Z,5.32
2024-05-09T18:09:22.126Z,5.60
2024-05-09T18:11:51.715Z,3.95
2024-05-09T18:14:21.267Z,5.63
2024-05-09T18:16:53.638Z,4.85
2024-05-09T18:19:23.436Z,5.22
2024-05-09T18:21:54.073Z,5.30
2024-05-09T18:24:24.743Z,2.90
2024-05-09T18:26:54.488Z,4.55
2024-05-09T18:29:24.131Z,3.70
2024-05-09T18:31:56.412Z,6.93
2024-05-09T18:34:26.149Z,3.78
2024-05-09T18:36:55.830Z,4.85
2024-05-09T18:39:25.404Z,3.45
2024-05-09T18:41:55.062Z,4.68
2024-05-09T18:44:24.687Z,4.07
2024-05-09T18:46:57.130Z,3.78
2024-05-09T18:49:26.944Z,4.35
2024-05-09T18:51:56.658Z,4.47
2024-05-09T18:54:26.288Z,3.47
2024-05-09T18:56:56.023Z,3.20
2024-05-09T18:59:25.648Z,5.00
2024-05-09T19:01:58.362Z,4.30
2024-05-09T19:04:28.060Z,5.63
2024-05-09T19:06:57.858Z,4.75
2024-05-09T19:09:27.383Z,4.78
2024-05-09T19:11:57.390Z,9.18
2024-05-09T19:14:27.020Z,5.05
2024-05-09T19:16:59.340Z,6.20
2024-05-09T19:19:29.078Z,7.80
2024-05-09T19:21:58.874Z,6.22
2024-05-09T19:24:28.494Z,5.93
2024-05-09T19:26:58.259Z,5.55
2024-05-09T19:29:27.872Z,6.80
2024-05-09T19:32:00.430Z,5.15
2024-05-09T19:34:30.118Z,6.95
2024-05-09T19:37:01.476Z,6.45
2024-05-09T19:39:31.319Z,8.25
2024-05-09T19:42:00.815Z,5.80
2024-05-09T19:44:30.370Z,6.32
2024-05-09T19:47:02.750Z,7.32
2024-05-09T19:49:32.685Z,4.78
2024-05-09T19:52:02.222Z,6.57
2024-05-09T19:54:31.760Z,4.15
2024-05-09T19:57:01.312Z,4.70
2024-05-09T19:59:30.799Z,7.60
2024-05-09T20:02:03.379Z,4.75
2024-05-09T20:04:33.136Z,4.82
2024-05-09T20:07:02.908Z,6.40
2024-05-09T20:09:32.479Z,4.85
2024-05-09T20:12:02.097Z,7.32
2024-05-09T20:14:31.613Z,5.63
2024-05-09T20:17:04.066Z,6.90
2024-05-09T20:19:33.679Z,5.18
2024-05-09T20:22:03.490Z,5.40
2024-05-09T20:24:33.402Z,5.68
2024-05-09T20:27:02.988Z,7.63
2024-05-09T20:29:32.562Z,7.50
2024-05-09T20:32:05.333Z,5.00
2024-05-09T20:34:34.949Z,5.30
2024-05-09T20:37:04.862Z,4.63
2024-05-09T20:39:34.520Z,5.82
2024-05-09T20:42:04.699Z,6.00
2024-05-09T20:44:34.369Z,5.65
2024-05-09T20:47:06.679Z,6.10
2024-05-09T20:49:36.241Z,7.30
2024-05-09T20:52:06.198Z,7.28
2024-05-09T20:54:35.888Z,5.45
2024-05-09T20:57:06.542Z,9.40
2024-05-09T20:59:37.863Z,11.48
2024-05-09T21:02:10.249Z,6.95
2024-05-09T21:04:40.160Z,4.85
2024-05-09T21:07:09.833Z,6.28
2024-05-09T21:09:39.430Z,7.10
2024-05-09T21:12:09.179Z,8.50
2024-05-09T21:14:38.810Z,7.55
2024-05-09T21:17:11.185Z,5.57
2024-05-09T21:19:40.895Z,6.75
2024-05-09T21:22:10.419Z,7.30
2024-05-09T21:24:39.917Z,6.22
2024-05-09T21:27:09.408Z,5.85
2024-05-09T21:29:38.922Z,7.53
2024-05-09T21:32:11.306Z,4.80
2024-05-09T21:34:40.933Z,6.85
2024-05-09T21:37:10.622Z,8.15
2024-05-09T21:39:40.174Z,5.80
2024-05-09T21:42:09.823Z,7.30
2024-05-09T21:44:39.295Z,6.25
2024-05-09T21:47:12.382Z,5.63
2024-05-09T21:49:41.910Z,7.63
2024-05-09T21:52:11.605Z,8.25
2024-05-09T21:54:41.232Z,6.00
2024-05-09T21:57:11.106Z,8.20
2024-05-09T21:59:42.019Z,5.88
2024-05-09T22:02:14.855Z,7.45
2024-05-09T22:04:44.742Z,7.25
2024-05-09T22:07:14.535Z,6.97
2024-05-09T22:09:45.719Z,9.35
2024-05-09T22:12:15.254Z,12.30
2024-05-09T22:14:45.263Z,5.53
2024-05-09T22:17:17.562Z,6.00
2024-05-09T22:19:47.112Z,7.00
2024-05-09T22:22:16.875Z,6.20
2024-05-09T22:24:46.461Z,6.18
2024-05-09T22:27:16.009Z,7.55
2024-05-09T22:29:45.495Z,7.25
2024-05-09T22:32:17.634Z,6.07
2024-05-09T22:34:47.248Z,11.35
2024-05-09T22:37:17.060Z,6.07
2024-05-09T22:39:46.599Z,7.18
2024-05-09T22:42:16.082Z,9.40
2024-05-09T22:44:45.593Z,7.13
2024-05-09T22:47:17.837Z,8.23
2024-05-09T22:49:47.388Z,6.53
2024-05-09T22:52:17.001Z,7.75
2024-05-09T22:54:46.627Z,6.80
2024-05-09T22:57:16.128Z,7.38
2024-05-09T22:59:45.731Z,6.43
2024-05-09T23:02:17.987Z,7.90
2024-05-09T23:04:48.105Z,5.70
2024-05-09T23:07:17.947Z,7.30
2024-05-09T23:09:47.712Z,6.80
2024-05-09T23:12:17.889Z,6.78
2024-05-09T23:14:47.446Z,8.07
2024-05-09T23:17:19.798Z,5.72
2024-05-09T23:19:49.360Z,7.63
2024-05-09T23:22:19.288Z,7.88
2024-05-09T23:24:48.978Z,6.63
2024-05-09T23:27:18.644Z,6.38
2024-05-09T23:29:48.116Z,6.40
2024-05-09T23:32:20.680Z,8.05
2024-05-09T23:34:50.519Z,8.18
2024-05-09T23:37:20.106Z,6.45
2024-05-09T23:39:49.743Z,7.35
2024-05-09T23:42:19.525Z,5.35
2024-05-09T23:44:49.068Z,5.28
2024-05-09T23:47:21.367Z,6.72
2024-05-09T23:49:50.901Z,5.60
2024-05-09T23:52:20.503Z,6.38
2024-05-09T23:54:50.364Z,7.50
2024-05-09T23:57:19.964Z,5.22
2024-05-09T23:59:49.514Z,5.32
